Seneca, Pennsylvania
Current Conditions -  °F | °C
As of 11:15 AM on Thursday 18 Dec 2014 (Local Time) from KFKL Reporting Station
Overcast Overcast  
Wind Chill: 17°   Ceiling: 600
Heat Index: 27°   Visibility: 2.5mi
Dew Point: 21°   Wind: 9mph
Humidity: 80%   Direction: 260°W
Pressure: 30.13"   Gusts: NA
Location:  41.38°N, 79.7°W
Report Text: KFKL 181615Z AUTO 26008KT 2 1/2SM OVC006 M03/M06 A3013 RMK AO1
Loading
Personal Weather Stations






























Interactive Weather Map New forecast layout! Learn more

10-Day Weather Forecast

Advertisements
Track Severe Weather on mobile